sensor_id;sensor_type;location;lat;lon;timestamp;temperature;humidity
21830;DHT22;11077;50.264;6.798;2023-03-01T00:01:17;-3.10;99.90
21830;DHT22;11077;50.264;6.798;2023-03-01T00:03:45;-3.20;99.90
21830;DHT22;11077;50.264;6.798;2023-03-01T00:06:13;-3.20;99.90
21830;DHT22;11077;50.264;6.798;2023-03-01T00:08:42;-3.10;99.90
21830;DHT22;11077;50.264;6.798;2023-03-01T00:11:13;-3.20;99.90
21830;DHT22;11077;50.264;6.798;2023-03-01T00:13:42;-3.30;99.90
21830;DHT22;11077;50.264;6.798;2023-03-01T00:16:12;-3.30;99.90
21830;DHT22;11077;50.264;6.798;2023-03-01T00:18:40;-3.40;99.90
21830;DHT22;11077;50.264;6.798;2023-03-01T00:21:07;-3.40;99.90
21830;DHT22;11077;50.264;6.798;2023-03-01T00:23:35;-3.40;99.90
21830;DHT22;11077;50.264;6.798;2023-03-01T00:26:08;-3.50;99.90
21830;DHT22;11077;50.264;6.798;2023-03-01T00:28:38;-3.50;99.90
21830;DHT22;11077;50.264;6.798;2023-03-01T00:31:06;-3.50;99.90
21830;DHT22;11077;50.264;6.798;2023-03-01T00:33:34;-3.60;99.90
21830;DHT22;11077;50.264;6.798;2023-03-01T00:36:01;-3.60;99.90
21830;DHT22;11077;50.264;6.798;2023-03-01T00:38:29;-3.60;99.90
21830;DHT22;11077;50.264;6.798;2023-03-01T00:41:03;-3.60;99.90
21830;DHT22;11077;50.264;6.798;2023-03-01T00:43:32;-3.40;99.90
21830;DHT22;11077;50.264;6.798;2023-03-01T00:46:02;-3.50;99.90
21830;DHT22;11077;50.264;6.798;2023-03-01T00:48:30;-3.40;99.90
21830;DHT22;11077;50.264;6.798;2023-03-01T00:51:04;-3.30;99.90
21830;DHT22;11077;50.264;6.798;2023-03-01T00:53:31;-3.30;99.90
21830;DHT22;11077;50.264;6.798;2023-03-01T00:55:59;-3.30;99.90
21830;DHT22;11077;50.264;6.798;2023-03-01T00:58:26;-3.40;99.90
21830;DHT22;11077;50.264;6.798;2023-03-01T01:00:55;-3.20;99.90
21830;DHT22;11077;50.264;6.798;2023-03-01T01:03:22;-3.20;99.90
21830;DHT22;11077;50.264;6.798;2023-03-01T01:05:50;-3.40;99.90
21830;DHT22;11077;50.264;6.798;2023-03-01T01:08:18;-3.40;99.90
21830;DHT22;11077;50.264;6.798;2023-03-01T01:10:46;-3.30;99.90
21830;DHT22;11077;50.264;6.798;2023-03-01T01:13:13;-3.30;99.90
21830;DHT22;11077;50.264;6.798;2023-03-01T01:15:41;-3.30;99.90
21830;DHT22;11077;50.264;6.798;2023-03-01T01:18:09;-3.30;99.90
21830;DHT22;11077;50.264;6.798;2023-03-01T01:20:37;-3.20;99.90
21830;DHT22;11077;50.264;6.798;2023-03-01T01:23:05;-3.40;99.90
21830;DHT22;11077;50.264;6.798;2023-03-01T01:25:35;-3.40;99.90
21830;DHT22;11077;50.264;6.798;2023-03-01T01:28:03;-3.40;99.90
21830;DHT22;11077;50.264;6.798;2023-03-01T01:30:30;-3.40;99.90
21830;DHT22;11077;50.264;6.798;2023-03-01T01:32:58;-3.50;99.90
21830;DHT22;11077;50.264;6.798;2023-03-01T01:35:27;-3.50;99.90
21830;DHT22;11077;50.264;6.798;2023-03-01T01:37:55;-3.50;99.90
21830;DHT22;11077;50.264;6.798;2023-03-01T01:40:22;-3.60;99.90
21830;DHT22;11077;50.264;6.798;2023-03-01T01:42:49;-3.60;99.90
21830;DHT22;11077;50.264;6.798;2023-03-01T01:45:35;-3.60;99.90
21830;DHT22;11077;50.264;6.798;2023-03-01T01:48:06;-3.70;99.90
21830;DHT22;11077;50.264;6.798;2023-03-01T01:50:35;-3.80;99.90
21830;DHT22;11077;50.264;6.798;2023-03-01T01:53:10;-3.80;99.90
21830;DHT22;11077;50.264;6.798;2023-03-01T01:55:43;-3.80;99.90
21830;DHT22;11077;50.264;6.798;2023-03-01T01:58:15;-3.90;99.90
21830;DHT22;11077;50.264;6.798;2023-03-01T02:00:47;-3.90;99.90
21830;DHT22;11077;50.264;6.798;2023-03-01T02:03:20;-3.90;99.90
21830;DHT22;11077;50.264;6.798;2023-03-01T02:05:57;-4.00;99.90
21830;DHT22;11077;50.264;6.798;2023-03-01T02:08:28;-4.00;99.90
21830;DHT22;11077;50.264;6.798;2023-03-01T02:10:57;-4.00;99.90
21830;DHT22;11077;50.264;6.798;2023-03-01T02:13:25;-4.00;99.90
21830;DHT22;11077;50.264;6.798;2023-03-01T02:15:54;-4.10;99.90
21830;DHT22;11077;50.264;6.798;2023-03-01T02:18:23;-4.00;99.90
21830;DHT22;11077;50.264;6.798;2023-03-01T02:21:01;-4.10;99.90
21830;DHT22;11077;50.264;6.798;2023-03-01T02:23:31;-4.00;99.90
21830;DHT22;11077;50.264;6.798;2023-03-01T02:26:04;-4.10;99.90
21830;DHT22;11077;50.264;6.798;2023-03-01T02:28:36;-4.00;99.90
21830;DHT22;11077;50.264;6.798;2023-03-01T02:31:05;-4.10;99.90
21830;DHT22;11077;50.264;6.798;2023-03-01T02:33:51;-4.20;99.90
21830;DHT22;11077;50.264;6.798;2023-03-01T02:36:21;-4.10;99.90
21830;DHT22;11077;50.264;6.798;2023-03-01T02:38:52;-4.20;99.90
21830;DHT22;11077;50.264;6.798;2023-03-01T02:41:21;-4.20;99.90
21830;DHT22;11077;50.264;6.798;2023-03-01T02:43:50;-4.20;99.90
21830;DHT22;11077;50.264;6.798;2023-03-01T02:46:19;-4.30;99.90
21830;DHT22;11077;50.264;6.798;2023-03-01T02:48:48;-4.30;99.90
21830;DHT22;11077;50.264;6.798;2023-03-01T02:51:27;-4.30;99.90
21830;DHT22;11077;50.264;6.798;2023-03-01T02:54:07;-4.30;99.90
21830;DHT22;11077;50.264;6.798;2023-03-01T02:56:37;-4.30;99.90
21830;DHT22;11077;50.264;6.798;2023-03-01T02:59:06;-4.30;99.90
21830;DHT22;11077;50.264;6.798;2023-03-01T03:01:35;-4.40;99.90
21830;DHT22;11077;50.264;6.798;2023-03-01T03:04:09;-4.40;99.90
21830;DHT22;11077;50.264;6.798;2023-03-01T03:06:37;-4.40;99.90
21830;DHT22;11077;50.264;6.798;2023-03-01T03:09:05;-4.40;99.90
21830;DHT22;11077;50.264;6.798;2023-03-01T03:11:33;-4.40;99.90
21830;DHT22;11077;50.264;6.798;2023-03-01T03:14:03;-4.50;99.90
21830;DHT22;11077;50.264;6.798;2023-03-01T03:16:32;-4.40;99.90
21830;DHT22;11077;50.264;6.798;2023-03-01T03:18:59;-4.50;99.90
21830;DHT22;11077;50.264;6.798;2023-03-01T03:21:30;-4.40;99.90
21830;DHT22;11077;50.264;6.798;2023-03-01T03:23:59;-4.50;99.90
21830;DHT22;11077;50.264;6.798;2023-03-01T03:26:26;-4.60;99.90
21830;DHT22;11077;50.264;6.798;2023-03-01T03:28:53;-4.50;99.90
21830;DHT22;11077;50.264;6.798;2023-03-01T03:31:21;-4.70;99.90
21830;DHT22;11077;50.264;6.798;2023-03-01T03:33:49;-4.70;99.90
21830;DHT22;11077;50.264;6.798;2023-03-01T03:36:17;-4.70;99.90
21830;DHT22;11077;50.264;6.798;2023-03-01T03:38:45;-4.70;99.90
21830;DHT22;11077;50.264;6.798;2023-03-01T03:41:12;-4.60;99.90
21830;DHT22;11077;50.264;6.798;2023-03-01T03:43:41;-4.70;99.90
21830;DHT22;11077;50.264;6.798;2023-03-01T03:46:10;-4.70;99.90
21830;DHT22;11077;50.264;6.798;2023-03-01T03:48:39;-4.70;99.90
21830;DHT22;11077;50.264;6.798;2023-03-01T03:51:10;-4.70;99.90
21830;DHT22;11077;50.264;6.798;2023-03-01T03:53:37;-4.70;99.90
21830;DHT22;11077;50.264;6.798;2023-03-01T03:56:05;-4.70;99.90
21830;DHT22;11077;50.264;6.798;2023-03-01T03:58:33;-4.80;99.90
21830;DHT22;11077;50.264;6.798;2023-03-01T04:01:01;-4.80;99.90
21830;DHT22;11077;50.264;6.798;2023-03-01T04:03:29;-4.80;99.90
21830;DHT22;11077;50.264;6.798;2023-03-01T04:05:58;-4.90;99.90
21830;DHT22;11077;50.264;6.798;2023-03-01T04:08:27;-4.80;99.90
21830;DHT22;11077;50.264;6.798;2023-03-01T04:10:58;-4.90;99.90
21830;DHT22;11077;50.264;6.798;2023-03-01T04:13:26;-4.80;99.90
21830;DHT22;11077;50.264;6.798;2023-03-01T04:15:54;-4.90;99.90
21830;DHT22;11077;50.264;6.798;2023-03-01T04:18:22;-4.90;99.90
21830;DHT22;11077;50.264;6.798;2023-03-01T04:20:50;-4.90;99.90
21830;DHT22;11077;50.264;6.798;2023-03-01T04:23:21;-4.90;99.90
21830;DHT22;11077;50.264;6.798;2023-03-01T04:25:51;-4.90;99.90
21830;DHT22;11077;50.264;6.798;2023-03-01T04:28:23;-4.90;99.90
21830;DHT22;11077;50.264;6.798;2023-03-01T04:30:53;-4.90;99.90
21830;DHT22;11077;50.264;6.798;2023-03-01T04:33:22;-4.90;99.90
21830;DHT22;11077;50.264;6.798;2023-03-01T04:35:50;-4.90;99.90
21830;DHT22;11077;50.264;6.798;2023-03-01T04:38:18;-5.00;99.90
21830;DHT22;11077;50.264;6.798;2023-03-01T04:40:46;-5.00;99.90
21830;DHT22;11077;50.264;6.798;2023-03-01T04:43:16;-5.00;99.90
21830;DHT22;11077;50.264;6.798;2023-03-01T04:45:44;-5.00;99.90
21830;DHT22;11077;50.264;6.798;2023-03-01T04:48:11;-5.20;99.90
21830;DHT22;11077;50.264;6.798;2023-03-01T04:50:38;-5.10;99.90
21830;DHT22;11077;50.264;6.798;2023-03-01T04:53:05;-5.10;99.90
21830;DHT22;11077;50.264;6.798;2023-03-01T04:55:33;-5.10;99.90
21830;DHT22;11077;50.264;6.798;2023-03-01T04:58:01;-5.20;99.90
21830;DHT22;11077;50.264;6.798;2023-03-01T05:00:29;-5.30;99.90
21830;DHT22;11077;50.264;6.798;2023-03-01T05:02:59;-5.30;99.90
21830;DHT22;11077;50.264;6.798;2023-03-01T05:05:28;-5.20;99.90
21830;DHT22;11077;50.264;6.798;2023-03-01T05:07:58;-5.20;99.90
21830;DHT22;11077;50.264;6.798;2023-03-01T05:10:27;-5.30;99.90
21830;DHT22;11077;50.264;6.798;2023-03-01T05:12:56;-5.20;99.90
21830;DHT22;11077;50.264;6.798;2023-03-01T05:15:24;-5.30;99.90
21830;DHT22;11077;50.264;6.798;2023-03-01T05:17:54;-5.30;99.90
21830;DHT22;11077;50.264;6.798;2023-03-01T05:20:24;-5.30;99.90
21830;DHT22;11077;50.264;6.798;2023-03-01T05:22:53;-5.30;99.90
21830;DHT22;11077;50.264;6.798;2023-03-01T05:25:21;-5.40;99.90
21830;DHT22;11077;50.264;6.798;2023-03-01T05:27:48;-5.40;99.90
21830;DHT22;11077;50.264;6.798;2023-03-01T05:30:16;-5.40;99.90
21830;DHT22;11077;50.264;6.798;2023-03-01T05:32:45;-5.50;99.90
21830;DHT22;11077;50.264;6.798;2023-03-01T05:35:15;-5.50;99.90
21830;DHT22;11077;50.264;6.798;2023-03-01T05:37:44;-5.60;99.90
21830;DHT22;11077;50.264;6.798;2023-03-01T05:40:14;-5.70;99.90
21830;DHT22;11077;50.264;6.798;2023-03-01T05:42:43;-5.70;99.90
21830;DHT22;11077;50.264;6.798;2023-03-01T05:45:11;-5.70;99.90
21830;DHT22;11077;50.264;6.798;2023-03-01T05:47:39;-5.70;99.90
21830;DHT22;11077;50.264;6.798;2023-03-01T05:50:12;-5.70;99.90
21830;DHT22;11077;50.264;6.798;2023-03-01T05:52:41;-5.70;99.90
21830;DHT22;11077;50.264;6.798;2023-03-01T05:55:09;-5.80;99.90
21830;DHT22;11077;50.264;6.798;2023-03-01T05:57:37;-5.80;99.90
21830;DHT22;11077;50.264;6.798;2023-03-01T06:00:04;-5.70;99.90
21830;DHT22;11077;50.264;6.798;2023-03-01T06:02:38;-5.70;99.90
21830;DHT22;11077;50.264;6.798;2023-03-01T06:05:07;-5.70;99.90
21830;DHT22;11077;50.264;6.798;2023-03-01T06:07:36;-5.70;99.90
21830;DHT22;11077;50.264;6.798;2023-03-01T06:10:06;-5.70;99.90
21830;DHT22;11077;50.264;6.798;2023-03-01T06:12:34;-5.70;99.90
21830;DHT22;11077;50.264;6.798;2023-03-01T06:15:05;-5.70;99.90
21830;DHT22;11077;50.264;6.798;2023-03-01T06:17:34;-5.70;99.90
21830;DHT22;11077;50.264;6.798;2023-03-01T06:20:04;-5.80;99.90
21830;DHT22;11077;50.264;6.798;2023-03-01T06:22:31;-5.80;99.90
21830;DHT22;11077;50.264;6.798;2023-03-01T06:24:58;-5.80;99.90
21830;DHT22;11077;50.264;6.798;2023-03-01T06:27:27;-5.90;99.90
21830;DHT22;11077;50.264;6.798;2023-03-01T06:29:55;-5.90;99.90
21830;DHT22;11077;50.264;6.798;2023-03-01T06:32:22;-5.90;99.90
21830;DHT22;11077;50.264;6.798;2023-03-01T06:34:49;-5.90;99.90
21830;DHT22;11077;50.264;6.798;2023-03-01T06:37:17;-5.90;99.90
21830;DHT22;11077;50.264;6.798;2023-03-01T06:39:44;-5.90;99.90
21830;DHT22;11077;50.264;6.798;2023-03-01T06:42:11;-5.90;99.90
21830;DHT22;11077;50.264;6.798;2023-03-01T06:44:40;-5.90;99.90
21830;DHT22;11077;50.264;6.798;2023-03-01T06:47:07;-5.90;99.90
21830;DHT22;11077;50.264;6.798;2023-03-01T06:49:34;-5.90;99.90
21830;DHT22;11077;50.264;6.798;2023-03-01T06:52:01;-5.80;99.90
21830;DHT22;11077;50.264;6.798;2023-03-01T06:54:28;-5.80;99.90
21830;DHT22;11077;50.264;6.798;2023-03-01T06:56:55;-5.80;99.90
21830;DHT22;11077;50.264;6.798;2023-03-01T06:59:23;-5.80;99.90
21830;DHT22;11077;50.264;6.798;2023-03-01T07:01:51;-5.70;99.90
21830;DHT22;11077;50.264;6.798;2023-03-01T07:04:18;-5.70;99.90
21830;DHT22;11077;50.264;6.798;2023-03-01T07:06:45;-5.60;99.90
21830;DHT22;11077;50.264;6.798;2023-03-01T07:09:19;-5.50;99.90
21830;DHT22;11077;50.264;6.798;2023-03-01T07:11:47;-5.40;99.90
21830;DHT22;11077;50.264;6.798;2023-03-01T07:14:15;-5.30;99.90
21830;DHT22;11077;50.264;6.798;2023-03-01T07:16:42;-5.20;99.90
21830;DHT22;11077;50.264;6.798;2023-03-01T07:19:11;-5.10;99.90
21830;DHT22;11077;50.264;6.798;2023-03-01T07:21:38;-4.90;99.90
21830;DHT22;11077;50.264;6.798;2023-03-01T07:24:06;-4.90;99.90
21830;DHT22;11077;50.264;6.798;2023-03-01T07:26:33;-4.70;99.90
21830;DHT22;11077;50.264;6.798;2023-03-01T07:29:02;-4.60;99.90
21830;DHT22;11077;50.264;6.798;2023-03-01T07:31:33;-4.50;99.90
21830;DHT22;11077;50.264;6.798;2023-03-01T07:34:00;-4.40;99.90
21830;DHT22;11077;50.264;6.798;2023-03-01T07:36:29;-4.30;99.90
21830;DHT22;11077;50.264;6.798;2023-03-01T07:38:56;-4.20;99.90
21830;DHT22;11077;50.264;6.798;2023-03-01T07:41:23;-4.10;99.90
21830;DHT22;11077;50.264;6.798;2023-03-01T07:43:50;-4.00;99.90
21830;DHT22;11077;50.264;6.798;2023-03-01T07:46:18;-3.80;99.90
21830;DHT22;11077;50.264;6.798;2023-03-01T07:48:45;-3.70;99.90
21830;DHT22;11077;50.264;6.798;2023-03-01T07:51:12;-3.50;99.90
21830;DHT22;11077;50.264;6.798;2023-03-01T07:53:41;-3.30;99.90
21830;DHT22;11077;50.264;6.798;2023-03-01T07:56:11;-3.10;99.90
21830;DHT22;11077;50.264;6.798;2023-03-01T07:58:41;-2.90;99.90
21830;DHT22;11077;50.264;6.798;2023-03-01T08:01:10;-2.60;99.90
21830;DHT22;11077;50.264;6.798;2023-03-01T08:03:37;-2.50;99.90
21830;DHT22;11077;50.264;6.798;2023-03-01T08:06:07;-2.40;99.90
21830;DHT22;11077;50.264;6.798;2023-03-01T08:08:35;-2.30;99.90
21830;DHT22;11077;50.264;6.798;2023-03-01T08:11:05;-2.10;99.90
21830;DHT22;11077;50.264;6.798;2023-03-01T08:13:33;-1.90;99.90
21830;DHT22;11077;50.264;6.798;2023-03-01T08:16:01;-1.80;99.90
21830;DHT22;11077;50.264;6.798;2023-03-01T08:18:29;-1.60;99.90
21830;DHT22;11077;50.264;6.798;2023-03-01T08:20:56;-1.60;99.90
21830;DHT22;11077;50.264;6.798;2023-03-01T08:23:27;-1.40;99.90
21830;DHT22;11077;50.264;6.798;2023-03-01T08:26:06;-1.30;99.90
21830;DHT22;11077;50.264;6.798;2023-03-01T08:28:34;-1.10;99.90
21830;DHT22;11077;50.264;6.798;2023-03-01T08:31:01;-1.00;99.90
21830;DHT22;11077;50.264;6.798;2023-03-01T08:33:29;-0.90;99.90
21830;DHT22;11077;50.264;6.798;2023-03-01T08:36:04;-0.70;99.90
21830;DHT22;11077;50.264;6.798;2023-03-01T08:38:32;-0.50;99.90
21830;DHT22;11077;50.264;6.798;2023-03-01T08:41:00;-0.40;99.90
21830;DHT22;11077;50.264;6.798;2023-03-01T08:43:29;-0.30;99.90
21830;DHT22;11077;50.264;6.798;2023-03-01T08:45:57;-0.20;99.90
21830;DHT22;11077;50.264;6.798;2023-03-01T08:48:24;0.10;99.90
21830;DHT22;11077;50.264;6.798;2023-03-01T08:50:51;0.30;99.90
21830;DHT22;11077;50.264;6.798;2023-03-01T08:53:18;0.50;99.90
21830;DHT22;11077;50.264;6.798;2023-03-01T08:55:45;0.60;99.90
21830;DHT22;11077;50.264;6.798;2023-03-01T08:58:13;0.70;99.90
21830;DHT22;11077;50.264;6.798;2023-03-01T09:00:42;0.90;99.90
21830;DHT22;11077;50.264;6.798;2023-03-01T09:03:10;1.10;99.90
21830;DHT22;11077;50.264;6.798;2023-03-01T09:05:37;1.20;99.90
21830;DHT22;11077;50.264;6.798;2023-03-01T09:08:05;1.40;99.90
21830;DHT22;11077;50.264;6.798;2023-03-01T09:10:37;1.50;99.90
21830;DHT22;11077;50.264;6.798;2023-03-01T09:13:05;1.60;99.90
21830;DHT22;11077;50.264;6.798;2023-03-01T09:15:33;1.70;99.90
21830;DHT22;11077;50.264;6.798;2023-03-01T09:18:03;1.80;99.90
21830;DHT22;11077;50.264;6.798;2023-03-01T09:20:31;1.90;99.90
21830;DHT22;11077;50.264;6.798;2023-03-01T09:22:59;2.00;99.90
21830;DHT22;11077;50.264;6.798;2023-03-01T09:25:27;2.10;99.90
21830;DHT22;11077;50.264;6.798;2023-03-01T09:27:55;2.20;99.90
21830;DHT22;11077;50.264;6.798;2023-03-01T09:30:22;2.30;99.90
21830;DHT22;11077;50.264;6.798;2023-03-01T09:32:50;2.40;99.90
21830;DHT22;11077;50.264;6.798;2023-03-01T09:35:19;2.50;99.90
21830;DHT22;11077;50.264;6.798;2023-03-01T09:37:48;2.50;99.90
21830;DHT22;11077;50.264;6.798;2023-03-01T09:40:18;2.40;99.90
21830;DHT22;11077;50.264;6.798;2023-03-01T09:42:51;2.50;99.90
21830;DHT22;11077;50.264;6.798;2023-03-01T09:45:26;2.50;99.90
21830;DHT22;11077;50.264;6.798;2023-03-01T09:47:55;2.60;99.90
21830;DHT22;11077;50.264;6.798;2023-03-01T09:50:27;2.60;99.90
21830;DHT22;11077;50.264;6.798;2023-03-01T09:53:01;2.70;99.90
21830;DHT22;11077;50.264;6.798;2023-03-01T09:55:32;2.80;99.90
21830;DHT22;11077;50.264;6.798;2023-03-01T09:58:06;2.80;99.90
21830;DHT22;11077;50.264;6.798;2023-03-01T10:00:41;2.90;99.90
21830;DHT22;11077;50.264;6.798;2023-03-01T10:03:14;2.90;99.90
21830;DHT22;11077;50.264;6.798;2023-03-01T10:06:03;2.90;99.90
21830;DHT22;11077;50.264;6.798;2023-03-01T10:08:38;2.80;99.90
21830;DHT22;11077;50.264;6.798;2023-03-01T10:11:18;2.90;99.90
21830;DHT22;11077;50.264;6.798;2023-03-01T10:13:50;3.00;99.90
21830;DHT22;11077;50.264;6.798;2023-03-01T10:16:23;3.00;99.90
21830;DHT22;11077;50.264;6.798;2023-03-01T10:18:57;3.10;99.90
21830;DHT22;11077;50.264;6.798;2023-03-01T10:21:28;3.10;99.90
21830;DHT22;11077;50.264;6.798;2023-03-01T10:24:02;3.10;99.90
21830;DHT22;11077;50.264;6.798;2023-03-01T10:26:44;3.20;99.90
21830;DHT22;11077;50.264;6.798;2023-03-01T10:29:14;3.40;99.90
21830;DHT22;11077;50.264;6.798;2023-03-01T10:31:43;3.60;99.90
21830;DHT22;11077;50.264;6.798;2023-03-01T10:34:15;3.80;99.90
21830;DHT22;11077;50.264;6.798;2023-03-01T10:36:50;4.10;99.90
21830;DHT22;11077;50.264;6.798;2023-03-01T10:39:20;4.20;99.90
21830;DHT22;11077;50.264;6.798;2023-03-01T10:41:59;4.30;99.90
21830;DHT22;11077;50.264;6.798;2023-03-01T10:44:39;4.40;99.90
21830;DHT22;11077;50.264;6.798;2023-03-01T10:47:14;4.50;99.90
21830;DHT22;11077;50.264;6.798;2023-03-01T10:49:55;4.70;99.90
21830;DHT22;11077;50.264;6.798;2023-03-01T10:52:27;4.80;99.90
21830;DHT22;11077;50.264;6.798;2023-03-01T10:54:56;4.80;99.90
21830;DHT22;11077;50.264;6.798;2023-03-01T10:57:29;5.10;99.90
21830;DHT22;11077;50.264;6.798;2023-03-01T11:00:17;5.20;99.90
21830;DHT22;11077;50.264;6.798;2023-03-01T11:02:48;5.40;99.90
21830;DHT22;11077;50.264;6.798;2023-03-01T11:05:21;5.60;99.90
21830;DHT22;11077;50.264;6.798;2023-03-01T11:07:53;5.80;99.90
21830;DHT22;11077;50.264;6.798;2023-03-01T11:10:24;5.90;99.90
21830;DHT22;11077;50.264;6.798;2023-03-01T11:12:51;6.00;99.90
21830;DHT22;11077;50.264;6.798;2023-03-01T11:15:27;6.10;99.90
21830;DHT22;11077;50.264;6.798;2023-03-01T11:17:55;6.10;99.90
21830;DHT22;11077;50.264;6.798;2023-03-01T11:20:29;6.20;99.90
21830;DHT22;11077;50.264;6.798;2023-03-01T11:23:03;6.30;99.90
21830;DHT22;11077;50.264;6.798;2023-03-01T11:25:34;6.30;99.90
21830;DHT22;11077;50.264;6.798;2023-03-01T11:28:05;6.20;99.90
21830;DHT22;11077;50.264;6.798;2023-03-01T11:30:36;6.20;99.90
21830;DHT22;11077;50.264;6.798;2023-03-01T11:33:15;6.40;99.90
21830;DHT22;11077;50.264;6.798;2023-03-01T11:35:49;6.50;99.90
21830;DHT22;11077;50.264;6.798;2023-03-01T11:38:24;6.50;99.90
21830;DHT22;11077;50.264;6.798;2023-03-01T11:41:00;6.70;99.90
21830;DHT22;11077;50.264;6.798;2023-03-01T11:43:37;6.70;99.90
21830;DHT22;11077;50.264;6.798;2023-03-01T11:49:52;6.80;99.90
21830;DHT22;11077;50.264;6.798;2023-03-01T11:52:28;6.90;99.90
21830;DHT22;11077;50.264;6.798;2023-03-01T11:55:10;6.70;99.90
21830;DHT22;11077;50.264;6.798;2023-03-01T11:57:52;7.00;99.90
21830;DHT22;11077;50.264;6.798;2023-03-01T12:00:37;7.10;99.90
21830;DHT22;11077;50.264;6.798;2023-03-01T12:03:26;7.00;99.90
21830;DHT22;11077;50.264;6.798;2023-03-01T12:06:22;7.00;99.90
21830;DHT22;11077;50.264;6.798;2023-03-01T12:09:06;6.90;99.90
21830;DHT22;11077;50.264;6.798;2023-03-01T12:11:58;6.90;99.90
21830;DHT22;11077;50.264;6.798;2023-03-01T12:17:41;6.40;99.90
21830;DHT22;11077;50.264;6.798;2023-03-01T12:20:21;6.50;99.90
21830;DHT22;11077;50.264;6.798;2023-03-01T12:23:04;6.60;99.90
21830;DHT22;11077;50.264;6.798;2023-03-01T12:25:39;6.60;99.90
21830;DHT22;11077;50.264;6.798;2023-03-01T12:28:39;6.50;99.90
21830;DHT22;11077;50.264;6.798;2023-03-01T12:31:36;6.50;99.90
21830;DHT22;11077;50.264;6.798;2023-03-01T12:34:17;6.60;99.90
21830;DHT22;11077;50.264;6.798;2023-03-01T12:36:55;6.60;99.90
21830;DHT22;11077;50.264;6.798;2023-03-01T12:39:33;6.60;99.90
21830;DHT22;11077;50.264;6.798;2023-03-01T12:42:10;6.70;99.90
21830;DHT22;11077;50.264;6.798;2023-03-01T12:44:59;6.70;99.90
21830;DHT22;11077;50.264;6.798;2023-03-01T12:47:41;6.80;99.90
21830;DHT22;11077;50.264;6.798;2023-03-01T12:50:17;6.90;99.90
21830;DHT22;11077;50.264;6.798;2023-03-01T12:52:49;6.80;99.90
21830;DHT22;11077;50.264;6.798;2023-03-01T12:55:25;6.70;99.90
21830;DHT22;11077;50.264;6.798;2023-03-01T12:57:57;6.70;99.90
21830;DHT22;11077;50.264;6.798;2023-03-01T13:00:32;6.80;99.90
21830;DHT22;11077;50.264;6.798;2023-03-01T13:03:12;6.90;99.90
21830;DHT22;11077;50.264;6.798;2023-03-01T13:06:06;6.90;99.90
21830;DHT22;11077;50.264;6.798;2023-03-01T13:08:39;6.70;99.90
21830;DHT22;11077;50.264;6.798;2023-03-01T13:11:20;6.60;99.90
21830;DHT22;11077;50.264;6.798;2023-03-01T13:13:48;6.60;99.90
21830;DHT22;11077;50.264;6.798;2023-03-01T13:19:12;6.60;99.90
21830;DHT22;11077;50.264;6.798;2023-03-01T13:21:40;6.60;99.90
21830;DHT22;11077;50.264;6.798;2023-03-01T13:24:24;6.50;99.90
21830;DHT22;11077;50.264;6.798;2023-03-01T13:27:21;6.30;99.90
21830;DHT22;11077;50.264;6.798;2023-03-01T13:29:51;6.00;99.90
21830;DHT22;11077;50.264;6.798;2023-03-01T13:32:21;6.00;99.90
21830;DHT22;11077;50.264;6.798;2023-03-01T13:34:56;6.00;99.90
21830;DHT22;11077;50.264;6.798;2023-03-01T13:37:29;6.00;99.90
21830;DHT22;11077;50.264;6.798;2023-03-01T13:39:58;6.00;99.90
21830;DHT22;11077;50.264;6.798;2023-03-01T13:42:40;6.00;99.90
21830;DHT22;11077;50.264;6.798;2023-03-01T13:45:24;5.90;99.90
21830;DHT22;11077;50.264;6.798;2023-03-01T13:47:58;6.00;99.90
21830;DHT22;11077;50.264;6.798;2023-03-01T13:50:29;6.00;99.90
21830;DHT22;11077;50.264;6.798;2023-03-01T13:52:59;5.90;99.90
21830;DHT22;11077;50.264;6.798;2023-03-01T13:55:36;5.80;99.90
21830;DHT22;11077;50.264;6.798;2023-03-01T13:58:12;5.70;99.90
21830;DHT22;11077;50.264;6.798;2023-03-01T14:00:41;5.60;99.90
21830;DHT22;11077;50.264;6.798;2023-03-01T14:03:12;5.60;99.90
21830;DHT22;11077;50.264;6.798;2023-03-01T14:05:42;5.60;99.90
21830;DHT22;11077;50.264;6.798;2023-03-01T14:08:28;5.70;99.90
21830;DHT22;11077;50.264;6.798;2023-03-01T14:14:01;5.60;99.90
21830;DHT22;11077;50.264;6.798;2023-03-01T14:16:39;5.50;99.90
21830;DHT22;11077;50.264;6.798;2023-03-01T14:19:17;5.40;99.90
21830;DHT22;11077;50.264;6.798;2023-03-01T14:21:46;5.30;99.90
21830;DHT22;11077;50.264;6.798;2023-03-01T14:24:18;5.10;99.90
21830;DHT22;11077;50.264;6.798;2023-03-01T14:26:47;5.10;99.90
21830;DHT22;11077;50.264;6.798;2023-03-01T14:29:33;5.10;99.90
21830;DHT22;11077;50.264;6.798;2023-03-01T14:32:15;5.10;99.90
21830;DHT22;11077;50.264;6.798;2023-03-01T14:34:47;5.10;99.90
21830;DHT22;11077;50.264;6.798;2023-03-01T14:37:24;5.10;99.90
21830;DHT22;11077;50.264;6.798;2023-03-01T14:39:52;5.00;99.90
21830;DHT22;11077;50.264;6.798;2023-03-01T14:42:21;5.00;99.90
21830;DHT22;11077;50.264;6.798;2023-03-01T14:44:51;4.90;99.90
21830;DHT22;11077;50.264;6.798;2023-03-01T14:47:27;4.90;99.90
21830;DHT22;11077;50.264;6.798;2023-03-01T14:50:01;4.90;99.90
21830;DHT22;11077;50.264;6.798;2023-03-01T14:52:34;4.90;99.90
21830;DHT22;11077;50.264;6.798;2023-03-01T14:55:05;4.90;99.90
21830;DHT22;11077;50.264;6.798;2023-03-01T14:57:34;4.90;99.90
21830;DHT22;11077;50.264;6.798;2023-03-01T15:00:03;4.90;99.90
21830;DHT22;11077;50.264;6.798;2023-03-01T15:02:34;4.90;99.90
21830;DHT22;11077;50.264;6.798;2023-03-01T15:05:05;4.90;99.90
21830;DHT22;11077;50.264;6.798;2023-03-01T15:07:35;4.80;99.90
21830;DHT22;11077;50.264;6.798;2023-03-01T15:10:05;4.70;99.90
21830;DHT22;11077;50.264;6.798;2023-03-01T15:12:38;4.70;99.90
21830;DHT22;11077;50.264;6.798;2023-03-01T15:15:30;4.70;99.90
21830;DHT22;11077;50.264;6.798;2023-03-01T15:17:59;4.70;99.90
21830;DHT22;11077;50.264;6.798;2023-03-01T15:20:29;4.70;99.90
21830;DHT22;11077;50.264;6.798;2023-03-01T15:23:02;4.70;99.90
21830;DHT22;11077;50.264;6.798;2023-03-01T15:25:31;4.60;99.90
21830;DHT22;11077;50.264;6.798;2023-03-01T15:28:00;4.70;99.90
21830;DHT22;11077;50.264;6.798;2023-03-01T15:30:30;4.60;99.90
21830;DHT22;11077;50.264;6.798;2023-03-01T15:33:18;4.60;99.90
21830;DHT22;11077;50.264;6.798;2023-03-01T15:35:49;4.60;99.90
21830;DHT22;11077;50.264;6.798;2023-03-01T15:38:35;4.50;99.90
21830;DHT22;11077;50.264;6.798;2023-03-01T15:41:05;4.50;99.90
21830;DHT22;11077;50.264;6.798;2023-03-01T15:43:48;4.50;99.90
21830;DHT22;11077;50.264;6.798;2023-03-01T15:46:18;4.50;99.90
21830;DHT22;11077;50.264;6.798;2023-03-01T15:48:49;4.50;99.90
21830;DHT22;11077;50.264;6.798;2023-03-01T15:51:32;4.50;99.90
21830;DHT22;11077;50.264;6.798;2023-03-01T15:54:03;4.40;99.90
21830;DHT22;11077;50.264;6.798;2023-03-01T15:56:31;4.40;99.90
21830;DHT22;11077;50.264;6.798;2023-03-01T15:59:00;4.40;99.90
21830;DHT22;11077;50.264;6.798;2023-03-01T16:01:28;4.40;99.90
21830;DHT22;11077;50.264;6.798;2023-03-01T16:03:56;4.30;99.90
21830;DHT22;11077;50.264;6.798;2023-03-01T16:06:26;4.30;99.90
21830;DHT22;11077;50.264;6.798;2023-03-01T16:08:53;4.30;99.90
21830;DHT22;11077;50.264;6.798;2023-03-01T16:11:21;4.30;99.90
21830;DHT22;11077;50.264;6.798;2023-03-01T16:13:48;4.30;99.90
21830;DHT22;11077;50.264;6.798;2023-03-01T16:16:16;4.30;99.90